Time;durP1;ratioP1;P1;durP2;ratioP2;P2;SDS_P1;SDS_P2;PMS_P1;PMS_P2;Temp;Humidity;BMP_temperature;BMP_pressure;BME280_temperature;BME280_humidity;BME280_pressure;Samples;Min_cycle;Max_cycle;Signal;HPM_P1;HPM_P2
2020/10/30 00:00:07;;;;;;;2.43;1.71;;;;;;;19.88;59.82;100900.23;;;;-63
2020/10/30 00:03:07;;;;;;;1.89;1.60;;;;;;;19.87;59.83;100901.51;;;;-61
2020/10/30 00:06:13;;;;;;;1.94;1.53;;;;;;;19.86;59.90;100895.16;;;;-63
2020/10/30 00:09:08;;;;;;;2.17;1.51;;;;;;;19.86;59.89;100897.25;;;;-61
2020/10/30 00:12:07;;;;;;;3.33;1.69;;;;;;;19.85;59.85;100895.70;;;;-63
2020/10/30 00:15:07;;;;;;;1.60;1.50;;;;;;;19.85;59.92;100896.36;;;;-52
2020/10/30 00:18:07;;;;;;;1.95;1.41;;;;;;;19.84;59.86;100895.38;;;;-52
2020/10/30 00:21:07;;;;;;;1.69;1.59;;;;;;;19.83;59.87;100893.00;;;;-52
2020/10/30 00:24:07;;;;;;;1.68;1.50;;;;;;;19.82;59.90;100889.50;;;;-51
2020/10/30 00:27:07;;;;;;;1.60;1.50;;;;;;;19.82;59.90;100885.44;;;;-51
2020/10/30 00:30:07;;;;;;;1.87;1.51;;;;;;;19.81;59.89;100882.00;;;;-52
2020/10/30 00:33:07;;;;;;;1.87;1.60;;;;;;;19.80;59.93;100883.05;;;;-64
2020/10/30 00:36:07;;;;;;;2.33;1.57;;;;;;;19.79;59.91;100876.77;;;;-64
2020/10/30 00:42:21;;;;;;;1.70;1.57;;;;;;;19.78;59.87;100876.52;;;;-64
2020/10/30 00:45:17;;;;;;;1.93;1.55;;;;;;;19.77;59.89;100871.37;;;;-63
2020/10/30 00:51:36;;;;;;;2.59;1.51;;;;;;;19.75;59.96;100871.43;;;;-63
2020/10/30 00:54:07;;;;;;;1.50;1.40;;;;;;;19.75;60.01;100872.89;;;;-64
2020/10/30 00:57:21;;;;;;;1.55;1.43;;;;;;;19.75;60.00;100872.65;;;;-63
2020/10/30 01:00:22;;;;;;;1.59;1.49;;;;;;;19.74;59.97;100870.95;;;;-63
2020/10/30 01:03:10;;;;;;;3.19;1.50;;;;;;;19.74;59.96;100872.00;;;;-63
2020/10/30 01:06:08;;;;;;;2.13;1.58;;;;;;;19.72;59.95;100878.40;;;;-61
2020/10/30 01:09:09;;;;;;;1.74;1.47;;;;;;;19.71;60.05;100869.34;;;;-64
2020/10/30 01:12:08;;;;;;;1.68;1.49;;;;;;;19.71;60.02;100871.22;;;;-64
2020/10/30 01:15:07;;;;;;;1.60;1.50;;;;;;;19.70;60.00;100873.17;;;;-61
2020/10/30 01:18:07;;;;;;;1.72;1.41;;;;;;;19.69;60.02;100873.22;;;;-64
2020/10/30 01:21:07;;;;;;;1.60;1.50;;;;;;;19.69;60.02;100869.12;;;;-63
2020/10/30 01:24:07;;;;;;;2.03;1.50;;;;;;;19.68;60.05;100868.72;;;;-63
2020/10/30 01:27:07;;;;;;;1.60;1.50;;;;;;;19.67;60.04;100870.76;;;;-63
2020/10/30 01:30:07;;;;;;;1.53;1.43;;;;;;;19.67;60.03;100871.46;;;;-63
2020/10/30 01:33:07;;;;;;;1.60;1.50;;;;;;;19.66;60.06;100875.61;;;;-63
2020/10/30 01:36:07;;;;;;;1.67;1.57;;;;;;;19.65;60.08;100877.08;;;;-63
2020/10/30 01:39:07;;;;;;;1.75;1.55;;;;;;;19.65;60.06;100882.84;;;;-63
2020/10/30 01:42:07;;;;;;;1.69;1.57;;;;;;;19.64;60.13;100882.74;;;;-61
2020/10/30 01:45:07;;;;;;;1.50;1.40;;;;;;;19.64;60.10;100888.52;;;;-51
2020/10/30 01:48:07;;;;;;;1.50;1.40;;;;;;;19.63;60.09;100884.91;;;;-51
2020/10/30 01:51:07;;;;;;;1.97;1.55;;;;;;;19.63;60.07;100882.80;;;;-51
2020/10/30 01:54:07;;;;;;;1.71;1.48;;;;;;;19.62;60.14;100878.41;;;;-51
2020/10/30 01:57:07;;;;;;;1.56;1.42;;;;;;;19.62;60.17;100876.45;;;;-51
2020/10/30 02:00:07;;;;;;;1.83;1.51;;;;;;;19.61;60.09;100881.91;;;;-51
2020/10/30 02:03:23;;;;;;;1.40;1.30;;;;;;;19.61;60.17;100882.28;;;;-51
2020/10/30 02:07:33;;;;;;;2.18;1.38;;;;;;;19.60;60.18;100878.78;;;;-51
2020/10/30 02:10:17;;;;;;;1.43;1.33;;;;;;;19.59;60.18;100880.91;;;;-48
2020/10/30 02:13:21;;;;;;;1.40;1.30;;;;;;;19.59;60.21;100871.61;;;;-48
2020/10/30 02:16:10;;;;;;;1.59;1.41;;;;;;;19.58;60.19;100870.55;;;;-48
2020/10/30 02:19:07;;;;;;;1.57;1.47;;;;;;;19.58;60.16;100870.71;;;;-48
2020/10/30 02:22:07;;;;;;;1.68;1.44;;;;;;;19.57;60.16;100864.94;;;;-48
2020/10/30 02:25:07;;;;;;;1.80;1.55;;;;;;;19.57;60.23;100861.02;;;;-48
2020/10/30 02:28:07;;;;;;;1.58;1.48;;;;;;;19.56;60.20;100858.49;;;;-49
2020/10/30 02:31:09;;;;;;;1.93;1.47;;;;;;;19.56;60.19;100853.29;;;;-48
2020/10/30 02:34:13;;;;;;;1.46;1.36;;;;;;;19.55;60.20;100855.41;;;;-48
2020/10/30 02:37:07;;;;;;;1.50;1.40;;;;;;;19.56;60.20;100856.46;;;;-48
2020/10/30 02:40:07;;;;;;;1.55;1.43;;;;;;;19.55;60.20;100857.03;;;;-48
2020/10/30 02:43:07;;;;;;;1.50;1.40;;;;;;;19.54;60.24;100859.92;;;;-48
2020/10/30 02:46:07;;;;;;;1.49;1.39;;;;;;;19.54;60.20;100862.69;;;;-48
2020/10/30 02:49:07;;;;;;;1.40;1.30;;;;;;;19.54;60.21;100863.34;;;;-50
2020/10/30 02:52:07;;;;;;;1.56;1.39;;;;;;;19.53;60.29;100868.71;;;;-48
2020/10/30 02:55:07;;;;;;;1.47;1.37;;;;;;;19.53;60.24;100865.84;;;;-48
2020/10/30 02:58:07;;;;;;;1.46;1.36;;;;;;;19.53;60.29;100875.22;;;;-48
2020/10/30 03:01:07;;;;;;;1.52;1.40;;;;;;;19.52;60.25;100878.77;;;;-48
2020/10/30 03:04:07;;;;;;;1.44;1.34;;;;;;;19.51;60.26;100881.13;;;;-48
2020/10/30 03:07:07;;;;;;;1.55;1.27;;;;;;;19.51;60.32;100888.03;;;;-48
2020/10/30 03:10:07;;;;;;;1.50;1.40;;;;;;;19.51;60.28;100890.84;;;;-61
2020/10/30 03:13:07;;;;;;;1.40;1.30;;;;;;;19.51;60.26;100897.38;;;;-61
2020/10/30 03:16:07;;;;;;;1.47;1.30;;;;;;;19.50;60.26;100891.58;;;;-63
2020/10/30 03:19:07;;;;;;;1.39;1.29;;;;;;;19.50;60.32;100894.59;;;;-63
2020/10/30 03:22:37;;;;;;;1.49;1.39;;;;;;;19.49;60.29;100892.64;;;;-63
2020/10/30 03:25:13;;;;;;;1.37;1.27;;;;;;;19.49;60.30;100896.70;;;;-52
2020/10/30 03:28:07;;;;;;;1.47;1.37;;;;;;;19.49;60.32;100902.15;;;;-52
2020/10/30 03:31:07;;;;;;;1.67;1.21;;;;;;;19.48;60.33;100907.23;;;;-51
2020/10/30 03:34:07;;;;;;;1.40;1.30;;;;;;;19.47;60.37;100908.05;;;;-52
2020/10/30 03:37:07;;;;;;;1.51;1.40;;;;;;;19.47;60.37;100907.16;;;;-51
2020/10/30 03:40:07;;;;;;;1.45;1.35;;;;;;;19.47;60.34;100908.30;;;;-52
2020/10/30 03:43:07;;;;;;;1.30;1.20;;;;;;;19.46;60.32;100903.55;;;;-52
2020/10/30 03:46:07;;;;;;;1.33;1.22;;;;;;;19.46;60.31;100911.80;;;;-51
2020/10/30 03:49:07;;;;;;;1.40;1.30;;;;;;;19.45;60.38;100914.20;;;;-52
2020/10/30 03:52:07;;;;;;;1.31;1.21;;;;;;;19.45;60.39;100921.77;;;;-52
2020/10/30 03:55:07;;;;;;;1.41;1.31;;;;;;;19.45;60.36;100916.97;;;;-51
2020/10/30 03:58:09;;;;;;;1.31;1.21;;;;;;;19.44;60.36;100920.11;;;;-51
2020/10/30 04:09:07;;;;;;;1.39;1.30;;;;;;;19.42;60.41;100933.89;;;;-51
2020/10/30 04:12:10;;;;;;;1.42;1.32;;;;;;;19.43;60.39;100932.14;;;;-51
2020/10/30 04:15:16;;;;;;;1.39;1.27;;;;;;;19.41;60.41;100921.78;;;;-52
2020/10/30 04:18:21;;;;;;;1.44;1.34;;;;;;;19.41;60.44;100915.04;;;;-52
2020/10/30 04:21:10;;;;;;;1.85;1.20;;;;;;;19.41;60.42;100903.17;;;;-51
2020/10/30 04:24:07;;;;;;;1.40;1.30;;;;;;;19.41;60.40;100897.97;;;;-51
2020/10/30 04:27:07;;;;;;;1.35;1.25;;;;;;;19.41;60.39;100903.66;;;;-52
2020/10/30 04:30:07;;;;;;;1.28;1.21;;;;;;;19.40;60.43;100900.95;;;;-51
2020/10/30 04:33:07;;;;;;;1.39;1.27;;;;;;;19.39;60.44;100904.69;;;;-51
2020/10/30 04:36:13;;;;;;;1.35;1.25;;;;;;;19.39;60.39;100900.95;;;;-51
2020/10/30 04:39:16;;;;;;;1.33;1.23;;;;;;;19.39;60.42;100895.59;;;;-51
2020/10/30 04:42:21;;;;;;;1.35;1.25;;;;;;;19.38;60.47;100888.36;;;;-51
2020/10/30 04:57:31;;;;;;;1.79;1.30;;;;;;;19.38;60.46;100908.80;;;;-48
2020/10/30 05:00:22;;;;;;;1.09;1.09;;;;;;;19.37;60.46;100907.09;;;;-48
2020/10/30 05:03:45;;;;;;;1.33;1.23;;;;;;;19.37;60.44;100906.86;;;;-48
2020/10/30 05:06:08;;;;;;;1.30;1.20;;;;;;;19.36;60.46;100907.99;;;;-48
2020/10/30 05:09:07;;;;;;;1.28;1.19;;;;;;;19.36;60.45;100916.01;;;;-48
2020/10/30 05:12:07;;;;;;;1.29;1.19;;;;;;;19.35;60.43;100917.55;;;;-48
2020/10/30 05:15:07;;;;;;;1.31;1.21;;;;;;;19.35;60.45;100921.45;;;;-48
2020/10/30 05:18:06;;;;;;;1.27;1.17;;;;;;;19.36;60.39;100924.87;;;;-49
2020/10/30 05:21:07;;;;;;;1.30;1.20;;;;;;;19.35;60.48;100930.48;;;;-48
2020/10/30 05:24:07;;;;;;;1.19;1.11;;;;;;;19.35;60.48;100928.61;;;;-48
2020/10/30 05:27:06;;;;;;;1.29;1.19;;;;;;;19.35;60.53;100935.19;;;;-48
2020/10/30 05:30:07;;;;;;;1.06;1.05;;;;;;;19.35;60.49;100939.17;;;;-48
2020/10/30 05:33:07;;;;;;;1.32;1.19;;;;;;;19.34;60.49;100940.61;;;;-48
2020/10/30 05:36:06;;;;;;;1.29;1.19;;;;;;;19.34;60.47;100946.89;;;;-51
2020/10/30 05:39:07;;;;;;;1.39;1.29;;;;;;;19.33;60.47;100956.78;;;;-52
2020/10/30 05:42:07;;;;;;;1.35;1.25;;;;;;;19.33;60.44;100961.57;;;;-52
2020/10/30 05:45:07;;;;;;;1.30;1.20;;;;;;;19.33;60.47;100954.17;;;;-51
2020/10/30 05:48:07;;;;;;;1.30;1.20;;;;;;;19.33;60.48;100950.52;;;;-51
2020/10/30 05:51:07;;;;;;;1.17;1.11;;;;;;;19.33;60.48;100948.65;;;;-51
2020/10/30 05:54:07;;;;;;;1.10;1.10;;;;;;;19.32;60.51;100951.30;;;;-51
2020/10/30 05:57:07;;;;;;;1.13;1.10;;;;;;;19.32;60.46;100963.98;;;;-52
2020/10/30 06:00:07;;;;;;;1.30;1.20;;;;;;;19.31;60.48;100967.80;;;;-51
2020/10/30 06:03:07;;;;;;;1.21;1.15;;;;;;;19.30;60.52;100965.44;;;;-52
2020/10/30 06:06:07;;;;;;;1.29;1.19;;;;;;;19.30;60.51;100974.52;;;;-51
2020/10/30 06:09:07;;;;;;;1.37;1.27;;;;;;;19.29;60.53;100971.50;;;;-52
2020/10/30 06:12:07;;;;;;;1.13;1.12;;;;;;;19.29;60.54;100967.45;;;;-52
2020/10/30 06:15:07;;;;;;;1.31;1.21;;;;;;;19.28;60.51;100967.77;;;;-51
2020/10/30 06:18:06;;;;;;;1.13;1.11;;;;;;;19.28;60.51;100965.98;;;;-51
2020/10/30 06:21:07;;;;;;;1.20;1.10;;;;;;;19.29;60.50;100968.98;;;;-52
2020/10/30 06:24:07;;;;;;;1.27;1.18;;;;;;;19.28;60.54;100966.36;;;;-52
2020/10/30 06:27:07;;;;;;;1.07;1.07;;;;;;;19.28;60.53;100969.72;;;;-51
2020/10/30 06:30:07;;;;;;;1.16;1.10;;;;;;;19.26;60.56;100963.10;;;;-52
2020/10/30 06:33:07;;;;;;;1.43;1.16;;;;;;;19.27;60.55;100970.83;;;;-51
2020/10/30 06:36:06;;;;;;;1.30;1.20;;;;;;;19.26;60.54;100978.14;;;;-51
2020/10/30 06:39:07;;;;;;;1.25;1.16;;;;;;;19.26;60.56;100985.17;;;;-51
2020/10/30 06:42:07;;;;;;;1.15;1.11;;;;;;;19.26;60.54;100994.06;;;;-51
2020/10/30 06:45:22;;;;;;;1.30;1.20;;;;;;;19.26;60.53;100997.80;;;;-51
2020/10/30 06:51:06;;;;;;;1.10;1.10;;;;;;;19.27;60.53;101009.75;;;;-51
2020/10/30 06:54:07;;;;;;;1.10;1.10;;;;;;;19.26;60.53;101011.29;;;;-52
2020/10/30 06:57:07;;;;;;;1.01;1.01;;;;;;;19.26;60.54;101018.20;;;;-51
2020/10/30 07:00:06;;;;;;;1.03;1.03;;;;;;;19.25;60.54;101018.73;;;;-51
2020/10/30 07:03:07;;;;;;;1.10;1.10;;;;;;;19.25;60.57;101021.42;;;;-52
2020/10/30 07:06:07;;;;;;;1.31;1.21;;;;;;;19.25;60.54;101025.64;;;;-51
2020/10/30 07:09:07;;;;;;;1.17;1.10;;;;;;;19.25;60.57;101031.00;;;;-52
2020/10/30 07:12:07;;;;;;;1.10;1.10;;;;;;;19.25;60.51;101028.41;;;;-51
2020/10/30 07:15:07;;;;;;;1.18;1.10;;;;;;;19.25;60.50;101029.70;;;;-51
2020/10/30 07:18:06;;;;;;;1.03;1.03;;;;;;;19.25;60.58;101035.48;;;;-51
2020/10/30 07:21:07;;;;;;;1.19;1.14;;;;;;;19.24;60.55;101038.56;;;;-51
2020/10/30 07:24:07;;;;;;;1.05;1.05;;;;;;;19.24;60.63;101044.73;;;;-52
2020/10/30 07:27:06;;;;;;;1.10;1.09;;;;;;;19.25;60.62;101043.20;;;;-52
2020/10/30 07:30:07;;;;;;;1.36;1.14;;;;;;;19.24;60.54;101045.80;;;;-52
2020/10/30 07:33:07;;;;;;;1.10;1.10;;;;;;;19.23;60.58;101046.82;;;;-51
2020/10/30 07:36:06;;;;;;;1.14;1.09;;;;;;;19.24;60.62;101050.42;;;;-51
2020/10/30 07:39:07;;;;;;;1.07;1.07;;;;;;;19.23;60.60;101053.40;;;;-52
2020/10/30 07:42:06;;;;;;;1.04;1.04;;;;;;;19.23;60.57;101062.25;;;;-52
2020/10/30 07:45:07;;;;;;;1.03;1.03;;;;;;;19.23;60.56;101069.33;;;;-52
2020/10/30 07:48:08;;;;;;;1.10;1.10;;;;;;;19.23;60.62;101074.45;;;;-51
2020/10/30 07:51:06;;;;;;;1.29;1.19;;;;;;;19.23;60.58;101078.34;;;;-51
2020/10/30 07:54:07;;;;;;;1.01;1.01;;;;;;;19.23;60.59;101079.23;;;;-61
2020/10/30 07:57:07;;;;;;;1.29;1.20;;;;;;;19.23;60.64;101079.56;;;;-48
2020/10/30 08:00:06;;;;;;;1.12;1.10;;;;;;;19.23;60.59;101081.84;;;;-63
2020/10/30 08:03:07;;;;;;;1.53;1.04;;;;;;;19.23;60.60;101084.69;;;;-51
2020/10/30 08:06:07;;;;;;;1.10;1.10;;;;;;;19.23;60.65;101092.48;;;;-52
2020/10/30 08:09:07;;;;;;;1.57;1.20;;;;;;;19.23;60.59;101095.49;;;;-51
2020/10/30 08:12:08;;;;;;;1.09;1.09;;;;;;;19.23;60.52;101090.29;;;;-52
2020/10/30 08:15:07;;;;;;;1.20;1.10;;;;;;;19.23;60.58;101086.47;;;;-51
2020/10/30 08:18:06;;;;;;;1.01;1.01;;;;;;;19.23;60.63;101091.75;;;;-51
2020/10/30 08:21:07;;;;;;;1.08;1.08;;;;;;;19.23;60.60;101089.56;;;;-63
2020/10/30 08:24:07;;;;;;;0.99;0.99;;;;;;;19.23;60.65;101091.19;;;;-63
2020/10/30 08:27:07;;;;;;;1.07;1.07;;;;;;;19.23;60.58;101086.47;;;;-63
2020/10/30 08:30:07;;;;;;;1.33;1.01;;;;;;;19.23;60.59;101090.21;;;;-63
2020/10/30 08:33:07;;;;;;;1.07;1.06;;;;;;;19.23;60.63;101093.45;;;;-63
2020/10/30 08:36:06;;;;;;;6.12;1.29;;;;;;;19.25;60.64;101093.41;;;;-58
2020/10/30 08:39:07;;;;;;;1.43;1.09;;;;;;;19.27;60.86;101102.63;;;;-58
2020/10/30 08:42:07;;;;;;;1.13;1.07;;;;;;;19.29;61.29;101105.35;;;;-57
2020/10/30 08:45:06;;;;;;;1.20;1.10;;;;;;;19.33;61.36;101115.34;;;;-52
2020/10/30 08:48:07;;;;;;;1.19;1.10;;;;;;;19.36;61.48;101123.53;;;;-51
2020/10/30 08:51:07;;;;;;;1.00;1.00;;;;;;;19.42;61.51;101125.72;;;;-52
2020/10/30 08:54:06;;;;;;;1.45;1.17;;;;;;;19.46;61.32;101133.11;;;;-50
2020/10/30 08:57:07;;;;;;;2.05;1.31;;;;;;;19.49;61.85;101128.47;;;;-58
2020/10/30 09:00:07;;;;;;;1.65;1.06;;;;;;;19.53;61.68;101130.48;;;;-58
2020/10/30 09:03:06;;;;;;;1.16;1.10;;;;;;;19.57;62.02;101132.83;;;;-59
2020/10/30 09:06:07;;;;;;;1.24;1.14;;;;;;;19.60;61.87;101136.44;;;;-61
2020/10/30 09:09:06;;;;;;;2.26;1.10;;;;;;;19.64;61.95;101139.11;;;;-59
2020/10/30 09:12:07;;;;;;;1.63;1.20;;;;;;;19.67;61.90;101139.75;;;;-62
2020/10/30 09:15:07;;;;;;;1.61;1.13;;;;;;;19.71;62.18;101143.56;;;;-62
2020/10/30 09:18:07;;;;;;;1.34;1.20;;;;;;;19.74;61.64;101142.56;;;;-60
2020/10/30 09:21:07;;;;;;;1.38;1.19;;;;;;;19.79;61.90;101144.66;;;;-57
2020/10/30 09:24:07;;;;;;;1.32;1.22;;;;;;;19.83;62.41;101151.23;;;;-53
2020/10/30 09:27:07;;;;;;;3.67;1.40;;;;;;;19.86;61.61;101148.38;;;;-46
2020/10/30 09:30:07;;;;;;;6.10;1.51;;;;;;;19.91;62.19;101154.05;;;;-55
2020/10/30 09:33:07;;;;;;;3.44;1.33;;;;;;;19.93;61.99;101159.30;;;;-47
2020/10/30 09:36:06;;;;;;;5.51;1.50;;;;;;;19.96;62.21;101160.46;;;;-54
2020/10/30 09:39:07;;;;;;;7.91;1.59;;;;;;;19.99;62.85;101163.86;;;;-58
2020/10/30 09:42:07;;;;;;;1.59;1.23;;;;;;;20.02;62.32;101164.38;;;;-53
2020/10/30 09:45:06;;;;;;;5.45;1.50;;;;;;;20.04;62.07;101163.69;;;;-49
2020/10/30 09:48:07;;;;;;;5.79;1.54;;;;;;;20.06;62.14;101166.23;;;;-54
2020/10/30 09:51:07;;;;;;;1.45;1.21;;;;;;;20.07;62.25;101158.38;;;;-50
2020/10/30 09:54:06;;;;;;;1.81;1.40;;;;;;;20.09;62.18;101161.01;;;;-50
2020/10/30 09:57:07;;;;;;;1.89;1.17;;;;;;;20.11;61.99;101160.47;;;;-52
2020/10/30 10:00:06;;;;;;;2.98;1.33;;;;;;;20.14;61.88;101162.13;;;;-58
2020/10/30 10:03:06;;;;;;;2.54;1.31;;;;;;;20.14;61.79;101161.64;;;;-53
2020/10/30 10:06:07;;;;;;;2.47;1.35;;;;;;;20.16;61.66;101162.64;;;;-61
2020/10/30 10:09:07;;;;;;;2.45;1.30;;;;;;;20.17;61.80;101165.00;;;;-60
2020/10/30 10:12:07;;;;;;;1.43;1.33;;;;;;;20.19;61.65;101169.92;;;;-50
2020/10/30 10:15:08;;;;;;;1.56;1.30;;;;;;;20.20;61.74;101171.66;;;;-54
2020/10/30 10:18:06;;;;;;;1.92;1.40;;;;;;;20.22;61.54;101170.95;;;;-52
2020/10/30 10:25:35;;;;;;;2.19;1.35;;;;;;;20.26;61.24;101167.77;;;;-65
2020/10/30 10:28:07;;;;;;;1.47;1.23;;;;;;;20.26;61.13;101164.09;;;;-66
2020/10/30 10:31:20;;;;;;;2.14;1.44;;;;;;;20.27;61.07;101162.23;;;;-53
2020/10/30 10:38:07;;;;;;;2.42;1.31;;;;;;;20.28;60.94;101161.61;;;;-59
2020/10/30 10:41:24;;;;;;;2.67;1.23;;;;;;;20.29;60.84;101164.05;;;;-59
2020/10/30 10:44:07;;;;;;;1.97;1.21;;;;;;;20.29;60.67;101168.39;;;;-60
2020/10/30 10:47:07;;;;;;;1.59;1.30;;;;;;;20.30;60.74;101166.68;;;;-59
2020/10/30 10:50:06;;;;;;;1.48;1.17;;;;;;;20.32;60.74;101160.28;;;;-59
2020/10/30 10:53:07;;;;;;;1.37;1.27;;;;;;;20.31;60.53;101160.00;;;;-68
2020/10/30 10:56:06;;;;;;;1.43;1.20;;;;;;;20.32;60.64;101151.48;;;;-59
2020/10/30 10:59:07;;;;;;;2.22;1.31;;;;;;;20.32;60.64;101149.45;;;;-59
2020/10/30 11:09:06;;;;;;;4.37;1.50;;;;;;;20.35;60.71;101127.66;;;;-60
2020/10/30 11:12:07;;;;;;;3.67;1.33;;;;;;;20.36;60.95;101124.92;;;;-61
2020/10/30 11:15:24;;;;;;;1.38;1.21;;;;;;;20.36;61.07;101122.48;;;;-57
2020/10/30 11:18:06;;;;;;;4.53;1.33;;;;;;;20.38;61.19;101124.71;;;;-58
2020/10/30 11:21:07;;;;;;;2.17;1.31;;;;;;;20.38;61.23;101130.16;;;;-58
2020/10/30 11:24:07;;;;;;;3.49;1.39;;;;;;;20.39;61.00;101124.78;;;;-59
2020/10/30 11:27:06;;;;;;;1.55;1.35;;;;;;;20.41;61.31;101123.52;;;;-55
2020/10/30 11:30:07;;;;;;;2.36;1.37;;;;;;;20.42;61.29;101127.58;;;;-65
2020/10/30 11:33:07;;;;;;;1.78;1.39;;;;;;;20.41;61.18;101126.85;;;;-61
2020/10/30 11:36:07;;;;;;;2.08;1.39;;;;;;;20.43;61.18;101123.62;;;;-58
2020/10/30 11:39:07;;;;;;;2.17;1.46;;;;;;;20.45;60.83;101119.98;;;;-57
2020/10/30 11:42:07;;;;;;;1.85;1.40;;;;;;;20.45;61.30;101118.28;;;;-57
2020/10/30 11:45:06;;;;;;;2.18;1.22;;;;;;;20.46;61.12;101124.54;;;;-58
2020/10/30 11:48:07;;;;;;;6.08;1.55;;;;;;;20.47;61.20;101131.81;;;;-58
2020/10/30 11:51:06;;;;;;;2.89;1.40;;;;;;;20.49;61.26;101127.45;;;;-53
2020/10/30 11:54:06;;;;;;;5.39;1.45;;;;;;;20.50;61.18;101131.19;;;;-58
2020/10/30 11:57:07;;;;;;;11.02;1.77;;;;;;;20.51;61.41;101128.28;;;;-60
2020/10/30 12:00:06;;;;;;;5.11;1.57;;;;;;;20.54;61.19;101129.23;;;;-59
2020/10/30 12:03:06;;;;;;;8.19;1.60;;;;;;;20.56;61.15;101139.09;;;;-62
2020/10/30 12:06:07;;;;;;;5.67;1.50;;;;;;;20.57;61.22;101138.80;;;;-62
2020/10/30 12:09:08;;;;;;;2.83;1.49;;;;;;;20.58;61.15;101135.48;;;;-60
2020/10/30 12:12:20;;;;;;;5.60;1.56;;;;;;;20.59;61.13;101130.62;;;;-61
2020/10/30 12:15:19;;;;;;;3.38;1.45;;;;;;;20.61;61.13;101125.24;;;;-61
2020/10/30 12:18:11;;;;;;;3.20;1.33;;;;;;;20.63;60.96;101125.95;;;;-62
2020/10/30 12:21:06;;;;;;;4.42;1.74;;;;;;;20.62;60.83;101124.38;;;;-62
2020/10/30 12:24:11;;;;;;;3.13;1.51;;;;;;;20.62;60.68;101128.37;;;;-63
2020/10/30 12:27:06;;;;;;;3.96;1.41;;;;;;;20.62;60.55;101126.73;;;;-61
2020/10/30 12:30:10;;;;;;;2.33;1.51;;;;;;;20.62;60.53;101125.44;;;;-62
2020/10/30 12:33:07;;;;;;;4.27;1.43;;;;;;;20.62;60.47;101123.72;;;;-61
2020/10/30 12:36:06;;;;;;;3.25;1.38;;;;;;;20.62;60.42;101125.84;;;;-54
2020/10/30 12:39:07;;;;;;;3.20;1.41;;;;;;;20.60;60.35;101126.95;;;;-53
2020/10/30 12:42:07;;;;;;;3.83;1.40;;;;;;;20.61;60.29;101128.13;;;;-54
2020/10/30 12:45:06;;;;;;;3.01;1.42;;;;;;;20.61;60.27;101123.16;;;;-53
2020/10/30 12:48:07;;;;;;;2.90;1.32;;;;;;;20.61;60.25;101127.06;;;;-53
2020/10/30 12:51:07;;;;;;;2.22;1.40;;;;;;;20.62;60.16;101126.09;;;;-54
2020/10/30 12:54:10;;;;;;;2.47;1.40;;;;;;;20.62;60.10;101129.02;;;;-54
2020/10/30 12:57:07;;;;;;;2.15;1.31;;;;;;;20.62;60.14;101128.45;;;;-54
2020/10/30 13:00:06;;;;;;;1.79;1.37;;;;;;;20.62;60.08;101122.99;;;;-54
2020/10/30 13:03:07;;;;;;;2.27;1.40;;;;;;;20.61;60.08;101123.73;;;;-53
2020/10/30 13:06:07;;;;;;;2.59;1.39;;;;;;;20.62;60.04;101121.61;;;;-53
2020/10/30 13:09:11;;;;;;;1.71;1.33;;;;;;;20.62;60.00;101126.82;;;;-53
2020/10/30 13:12:24;;;;;;;4.15;1.40;;;;;;;20.62;60.03;101123.97;;;;-54
2020/10/30 13:15:32;;;;;;;2.25;1.31;;;;;;;20.62;59.97;101119.00;;;;-53
2020/10/30 13:18:06;;;;;;;2.91;1.29;;;;;;;20.62;59.99;101118.76;;;;-53
2020/10/30 13:21:06;;;;;;;1.57;1.30;;;;;;;20.64;59.94;101124.16;;;;-53
2020/10/30 13:24:08;;;;;;;1.60;1.41;;;;;;;20.63;59.92;101120.73;;;;-54
2020/10/30 13:27:06;;;;;;;1.50;1.21;;;;;;;20.64;59.96;101120.73;;;;-53
2020/10/30 13:30:14;;;;;;;1.52;1.25;;;;;;;20.64;59.89;101118.37;;;;-54
2020/10/30 13:33:15;;;;;;;2.49;1.38;;;;;;;20.64;59.92;101125.13;;;;-53
2020/10/30 13:36:31;;;;;;;1.65;1.29;;;;;;;20.65;59.92;101130.12;;;;-53
2020/10/30 13:39:39;;;;;;;1.38;1.25;;;;;;;20.65;59.96;101132.81;;;;-53
2020/10/30 13:42:11;;;;;;;1.65;1.30;;;;;;;20.65;60.11;101139.30;;;;-57
2020/10/30 13:45:08;;;;;;;2.23;1.40;;;;;;;20.65;60.25;101139.91;;;;-50
2020/10/30 13:48:09;;;;;;;2.81;1.35;;;;;;;20.66;60.24;101139.66;;;;-55
2020/10/30 13:51:12;;;;;;;1.69;1.40;;;;;;;20.68;60.25;101146.61;;;;-51
2020/10/30 13:54:13;;;;;;;2.33;1.43;;;;;;;20.69;60.09;101144.68;;;;-51
2020/10/30 13:57:13;;;;;;;2.26;1.47;;;;;;;20.70;60.22;101145.73;;;;-65
2020/10/30 14:00:17;;;;;;;1.52;1.29;;;;;;;20.71;60.00;101146.91;;;;-65
2020/10/30 14:03:06;;;;;;;2.40;1.41;;;;;;;20.72;60.01;101146.33;;;;-64
2020/10/30 14:06:10;;;;;;;1.97;1.35;;;;;;;20.72;59.94;101145.44;;;;-64
2020/10/30 14:09:07;;;;;;;1.70;1.40;;;;;;;20.72;59.94;101148.28;;;;-64
2020/10/30 14:12:07;;;;;;;3.26;1.40;;;;;;;20.72;59.90;101144.30;;;;-65
2020/10/30 14:15:07;;;;;;;1.96;1.40;;;;;;;20.72;59.91;101147.23;;;;-65
2020/10/30 14:18:06;;;;;;;1.67;1.29;;;;;;;20.72;59.86;101145.11;;;;-64
2020/10/30 14:21:07;;;;;;;6.21;1.50;;;;;;;20.73;59.94;101150.31;;;;-60
2020/10/30 14:24:18;;;;;;;1.75;1.30;;;;;;;20.72;59.90;101148.36;;;;-60
2020/10/30 14:27:06;;;;;;;3.23;1.36;;;;;;;20.72;59.86;101150.97;;;;-58
2020/10/30 14:30:07;;;;;;;1.84;1.26;;;;;;;20.73;59.85;101155.29;;;;-58
2020/10/30 14:33:06;;;;;;;4.11;1.39;;;;;;;20.72;59.94;101158.47;;;;-57
2020/10/30 14:36:06;;;;;;;5.61;1.38;;;;;;;20.73;59.88;101156.45;;;;-60
2020/10/30 14:39:06;;;;;;;3.12;1.38;;;;;;;20.72;59.86;101166.28;;;;-60
2020/10/30 14:42:06;;;;;;;3.05;1.43;;;;;;;20.72;59.83;101166.86;;;;-59
2020/10/30 14:45:06;;;;;;;2.84;1.33;;;;;;;20.72;59.85;101167.10;;;;-60
2020/10/30 14:48:07;;;;;;;2.89;1.44;;;;;;;20.72;59.80;101170.69;;;;-67
2020/10/30 14:51:06;;;;;;;3.16;1.40;;;;;;;20.72;59.79;101169.63;;;;-70
2020/10/30 14:54:06;;;;;;;2.93;1.51;;;;;;;20.71;60.04;101169.92;;;;-62
2020/10/30 14:57:07;;;;;;;4.95;1.66;;;;;;;20.70;60.41;101171.31;;;;-51
2020/10/30 15:00:06;;;;;;;4.43;2.10;;;;;;;20.69;60.52;101173.34;;;;-55
2020/10/30 15:03:09;;;;;;;3.55;2.06;;;;;;;20.69;60.45;101171.80;;;;-62
2020/10/30 15:06:07;;;;;;;7.88;2.30;;;;;;;20.72;60.79;101168.97;;;;-62
2020/10/30 15:09:06;;;;;;;5.10;2.50;;;;;;;20.72;60.60;101174.76;;;;-54
2020/10/30 15:12:07;;;;;;;5.27;2.21;;;;;;;20.73;60.64;101178.29;;;;-56
2020/10/30 15:15:06;;;;;;;6.58;2.47;;;;;;;20.75;60.78;101176.60;;;;-62
2020/10/30 15:18:06;;;;;;;4.59;2.01;;;;;;;20.76;60.39;101179.61;;;;-61
2020/10/30 15:21:06;;;;;;;7.86;2.19;;;;;;;20.74;60.46;101175.35;;;;-55
2020/10/30 15:24:06;;;;;;;5.05;2.34;;;;;;;20.73;60.60;101171.85;;;;-51
2020/10/30 15:27:06;;;;;;;5.71;2.61;;;;;;;20.73;60.63;101166.80;;;;-51
2020/10/30 15:30:06;;;;;;;5.73;2.57;;;;;;;20.73;60.42;101168.19;;;;-50
2020/10/30 15:33:06;;;;;;;4.27;2.67;;;;;;;20.72;60.57;101173.53;;;;-51
2020/10/30 15:36:08;;;;;;;6.06;3.00;;;;;;;20.74;60.45;101176.66;;;;-53
2020/10/30 15:39:07;;;;;;;5.75;2.65;;;;;;;20.73;60.38;101182.58;;;;-53
2020/10/30 15:42:06;;;;;;;4.89;2.73;;;;;;;20.76;60.57;101189.31;;;;-57
2020/10/30 15:45:06;;;;;;;6.37;2.45;;;;;;;20.76;60.36;101188.82;;;;-58
2020/10/30 15:48:38;;;;;;;3.68;2.36;;;;;;;20.76;60.26;101190.45;;;;-58
2020/10/30 15:56:07;;;;;;;6.25;2.29;;;;;;;20.76;60.14;101193.87;;;;-60
2020/10/30 15:59:11;;;;;;;3.60;2.65;;;;;;;20.77;60.10;101195.25;;;;-59
2020/10/30 16:02:06;;;;;;;2.92;2.20;;;;;;;20.76;60.08;101197.78;;;;-60
2020/10/30 16:05:06;;;;;;;3.53;2.28;;;;;;;20.77;60.01;101201.77;;;;-60
2020/10/30 16:08:06;;;;;;;3.86;2.41;;;;;;;20.76;60.02;101200.14;;;;-60
2020/10/30 16:11:07;;;;;;;3.58;2.21;;;;;;;20.76;60.01;101200.47;;;;-60
2020/10/30 16:14:06;;;;;;;3.43;2.23;;;;;;;20.76;59.98;101205.19;;;;-60
2020/10/30 16:17:07;;;;;;;3.36;2.26;;;;;;;20.76;59.94;101204.70;;;;-60
2020/10/30 16:20:06;;;;;;;3.80;2.23;;;;;;;20.75;59.94;101208.05;;;;-60
2020/10/30 16:23:07;;;;;;;3.63;2.10;;;;;;;20.76;59.92;101215.62;;;;-57
2020/10/30 16:26:06;;;;;;;3.31;2.16;;;;;;;20.76;59.90;101212.53;;;;-57
2020/10/30 16:29:07;;;;;;;3.55;2.23;;;;;;;20.76;59.92;101213.02;;;;-57
2020/10/30 16:32:06;;;;;;;3.91;2.22;;;;;;;20.75;59.91;101217.66;;;;-60
2020/10/30 16:35:06;;;;;;;3.35;1.99;;;;;;;20.75;59.89;101222.38;;;;-60
2020/10/30 16:38:06;;;;;;;4.34;2.20;;;;;;;20.75;59.87;101226.94;;;;-60
2020/10/30 16:41:06;;;;;;;2.97;2.13;;;;;;;20.75;59.87;101228.88;;;;-60
2020/10/30 16:44:06;;;;;;;3.13;2.11;;;;;;;20.75;59.88;101233.87;;;;-60
2020/10/30 16:47:06;;;;;;;3.19;1.99;;;;;;;20.75;59.90;101234.36;;;;-60
2020/10/30 16:50:06;;;;;;;5.33;2.17;;;;;;;20.74;59.98;101239.54;;;;-57
2020/10/30 16:53:06;;;;;;;4.43;2.29;;;;;;;20.74;60.18;101241.74;;;;-59
2020/10/30 16:56:06;;;;;;;2.74;2.21;;;;;;;20.74;60.25;101248.17;;;;-56
2020/10/30 16:59:06;;;;;;;3.93;2.23;;;;;;;20.74;60.17;101252.09;;;;-55
2020/10/30 17:02:06;;;;;;;3.55;2.20;;;;;;;20.73;60.12;101253.36;;;;-51
2020/10/30 17:05:06;;;;;;;7.01;2.23;;;;;;;20.75;60.18;101261.21;;;;-54
2020/10/30 17:08:06;;;;;;;3.64;2.19;;;;;;;20.74;60.18;101264.88;;;;-54
2020/10/30 17:11:06;;;;;;;2.61;2.01;;;;;;;20.75;60.11;101269.77;;;;-57
2020/10/30 17:14:06;;;;;;;3.79;2.25;;;;;;;20.73;60.20;101273.43;;;;-57
2020/10/30 17:17:06;;;;;;;3.63;2.11;;;;;;;20.74;60.25;101271.23;;;;-48
2020/10/30 17:20:07;;;;;;;4.37;2.10;;;;;;;20.74;60.12;101273.02;;;;-62
2020/10/30 17:23:06;;;;;;;4.61;2.29;;;;;;;20.75;60.30;101273.92;;;;-62
2020/10/30 17:26:06;;;;;;;2.91;2.12;;;;;;;20.76;60.35;101276.88;;;;-48
2020/10/30 17:29:07;;;;;;;3.80;2.39;;;;;;;20.76;60.35;101279.89;;;;-49
2020/10/30 17:32:06;;;;;;;4.39;2.33;;;;;;;20.76;60.28;101277.77;;;;-57